Time;durP1;ratioP1;P1;durP2;ratioP2;P2;SDS_P1;SDS_P2;PMS_P1;PMS_P2;Temp;Humidity;BMP_temperature;BMP_pressure;BME280_temperature;BME280_humidity;BME280_pressure;Samples;Min_cycle;Max_cycle;Signal;HPM_P1;HPM_P2
2022/10/24 00:00:49;;;;;;;6.90;4.40;;;14.80;99.90;;;;;;6270283;22;20011;-75
2022/10/24 00:03:15;;;;;;;11.95;2.97;;;14.80;99.90;;;;;;6271332;22;20005;-75
2022/10/24 00:05:43;;;;;;;9.20;3.15;;;14.80;99.90;;;;;;6271633;22;20065;-75
2022/10/24 00:08:09;;;;;;;4.38;2.40;;;15.60;99.90;;;;;;6272224;22;20007;-74
2022/10/24 00:10:35;;;;;;;8.02;2.90;;;14.80;99.90;;;;;;6271646;22;20038;-74
2022/10/24 00:13:01;;;;;;;6.75;2.50;;;14.90;99.90;;;;;;6271430;22;20030;-75
2022/10/24 00:15:27;;;;;;;8.50;3.45;;;14.80;99.90;;;;;;6269461;22;20008;-75
2022/10/24 00:17:52;;;;;;;3.90;2.03;;;14.80;99.90;;;;;;6270111;22;20006;-74
2022/10/24 00:20:18;;;;;;;6.03;2.53;;;14.80;99.90;;;;;;6271532;22;19996;-74
2022/10/24 00:22:43;;;;;;;5.15;2.38;;;14.90;99.90;;;;;;6270620;22;20370;-75
2022/10/24 00:25:09;;;;;;;5.65;3.03;;;15.00;99.90;;;;;;6270015;22;19999;-75
2022/10/24 00:27:35;;;;;;;6.72;2.53;;;14.90;99.90;;;;;;6270003;22;20057;-74
2022/10/24 00:30:01;;;;;;;8.90;2.13;;;14.90;99.90;;;;;;6270378;22;20061;-75
2022/10/24 00:32:26;;;;;;;6.93;2.47;;;15.00;99.90;;;;;;6271640;22;20004;-74
2022/10/24 00:34:52;;;;;;;12.63;3.35;;;14.90;99.90;;;;;;6270936;22;20329;-75
2022/10/24 00:37:18;;;;;;;6.18;2.20;;;14.90;99.90;;;;;;6271583;22;20003;-75
2022/10/24 00:39:43;;;;;;;9.57;3.03;;;15.00;99.90;;;;;;6271230;22;20004;-75
2022/10/24 00:42:11;;;;;;;8.25;2.33;;;15.90;99.90;;;;;;6271281;22;20027;-74
2022/10/24 00:44:38;;;;;;;5.18;2.05;;;14.90;99.90;;;;;;6270908;22;20008;-74
2022/10/24 00:47:30;;;;;;;5.32;1.90;;;15.10;99.90;;;;;;6271233;22;19999;-74
2022/10/24 00:50:10;;;;;;;4.72;2.00;;;15.10;99.90;;;;;;6265339;22;20007;-75
2022/10/24 00:52:41;;;;;;;5.70;1.88;;;15.20;99.90;;;;;;6271570;22;20066;-74
2022/10/24 00:55:08;;;;;;;8.50;2.50;;;15.10;99.90;;;;;;6271091;22;20382;-74
2022/10/24 00:57:43;;;;;;;4.63;1.80;;;16.30;99.90;;;;;;6271410;22;20002;-74
2022/10/24 01:00:20;;;;;;;5.45;1.95;;;15.00;99.90;;;;;;6270804;22;20000;-74
2022/10/24 01:02:46;;;;;;;10.07;2.40;;;15.10;99.90;;;;;;6270939;22;20001;-75
2022/10/24 01:05:13;;;;;;;6.88;2.10;;;15.00;99.90;;;;;;6271345;22;20102;-74
2022/10/24 01:07:59;;;;;;;9.45;2.47;;;15.00;99.90;;;;;;6271213;22;20092;-74
2022/10/24 01:11:01;;;;;;;7.60;2.75;;;15.20;99.90;;;;;;6271643;22;20324;-74
2022/10/24 01:14:01;;;;;;;7.50;2.30;;;15.00;99.90;;;;;;6270883;22;20437;-74
2022/10/24 01:16:55;;;;;;;4.85;2.30;;;15.00;99.90;;;;;;6271286;22;20045;-74
2022/10/24 01:19:38;;;;;;;6.05;2.28;;;15.10;99.90;;;;;;6271432;22;20027;-74
2022/10/24 01:22:29;;;;;;;7.47;1.92;;;15.10;99.90;;;;;;6271169;22;20389;-74
2022/10/24 01:25:16;;;;;;;3.80;1.85;;;15.10;99.90;;;;;;6254309;22;20055;-74
2022/10/24 01:28:06;;;;;;;8.88;2.35;;;15.20;99.90;;;;;;6270940;22;20042;-74
2022/10/24 01:30:42;;;;;;;6.28;2.58;;;15.30;99.90;;;;;;6271377;22;20035;-74
2022/10/24 01:33:31;;;;;;;6.00;2.35;;;15.20;99.90;;;;;;6270905;22;19996;-74
2022/10/24 01:36:12;;;;;;;9.07;2.13;;;15.30;99.90;;;;;;6255743;22;20454;-74
2022/10/24 01:38:46;;;;;;;5.55;2.20;;;15.40;99.90;;;;;;6272824;22;20003;-74
2022/10/24 01:41:16;;;;;;;15.15;2.70;;;15.30;99.90;;;;;;6273154;22;19999;-74
2022/10/24 01:43:55;;;;;;;6.05;2.05;;;15.20;99.90;;;;;;6272399;22;20010;-74
2022/10/24 01:46:26;;;;;;;7.72;2.30;;;15.20;99.90;;;;;;6273007;22;19996;-74
2022/10/24 01:49:06;;;;;;;4.40;2.30;;;15.10;99.90;;;;;;6273002;22;20321;-74
2022/10/24 01:51:33;;;;;;;8.88;3.38;;;15.90;99.90;;;;;;6273272;22;20043;-74
2022/10/24 01:53:59;;;;;;;4.20;1.98;;;15.00;99.90;;;;;;6272566;22;20133;-74
2022/10/24 01:56:25;;;;;;;5.78;2.85;;;15.00;99.90;;;;;;6272905;22;19991;-74
2022/10/24 01:58:51;;;;;;;7.93;2.20;;;15.00;99.90;;;;;;6272158;22;20007;-74
2022/10/24 02:01:22;;;;;;;7.93;2.30;;;15.00;99.90;;;;;;6272464;22;20499;-74
2022/10/24 02:03:53;;;;;;;7.70;2.55;;;15.00;99.90;;;;;;6273191;22;20050;-74
2022/10/24 02:06:24;;;;;;;10.48;2.78;;;15.00;99.90;;;;;;6272613;22;20053;-74
2022/10/24 02:08:55;;;;;;;6.85;2.65;;;15.00;99.90;;;;;;6272546;22;20000;-74
2022/10/24 02:11:21;;;;;;;6.13;2.47;;;14.90;99.90;;;;;;6272895;22;20039;-74
2022/10/24 02:13:56;;;;;;;11.95;2.65;;;15.90;99.90;;;;;;6272063;22;20058;-74
2022/10/24 02:16:21;;;;;;;7.80;3.47;;;14.90;99.90;;;;;;6272513;22;20028;-74
2022/10/24 02:18:50;;;;;;;5.40;2.10;;;15.00;99.90;;;;;;6272603;22;20003;-74
2022/10/24 02:21:51;;;;;;;7.20;2.00;;;15.00;99.90;;;;;;6272310;22;20030;-74
2022/10/24 02:24:25;;;;;;;5.25;2.08;;;15.10;99.90;;;;;;6272408;22;20003;-74
2022/10/24 02:27:24;;;;;;;6.63;2.25;;;15.10;99.90;;;;;;6271710;22;20020;-73
2022/10/24 02:29:53;;;;;;;5.78;1.55;;;15.00;99.90;;;;;;6246229;22;20544;-74
2022/10/24 02:32:25;;;;;;;6.18;1.70;;;15.40;99.90;;;;;;6272168;22;20057;-74
2022/10/24 02:34:51;;;;;;;2.95;1.63;;;15.30;99.90;;;;;;6272480;22;20365;-75
2022/10/24 02:37:18;;;;;;;5.50;1.80;;;15.10;99.90;;;;;;6272159;22;19992;-74
2022/10/24 02:39:46;;;;;;;6.15;1.50;;;15.10;99.90;;;;;;6272298;22;20425;-74
2022/10/24 02:42:14;;;;;;;5.55;1.67;;;15.10;99.90;;;;;;6271872;22;20337;-74
2022/10/24 02:44:41;;;;;;;4.32;1.95;;;15.10;99.90;;;;;;6270483;22;20099;-74
2022/10/24 02:47:08;;;;;;;6.30;2.40;;;15.10;99.90;;;;;;6272158;22;20010;-74
2022/10/24 02:49:34;;;;;;;5.05;1.63;;;15.10;99.90;;;;;;6272114;22;20058;-73
2022/10/24 02:52:01;;;;;;;5.20;1.73;;;15.20;99.90;;;;;;6272529;22;20007;-74
2022/10/24 02:54:26;;;;;;;4.75;1.50;;;15.10;99.90;;;;;;6271867;22;20003;-74
2022/10/24 02:56:56;;;;;;;4.22;1.52;;;17.50;99.90;;;;;;6271909;22;20007;-74
2022/10/24 02:59:22;;;;;;;5.35;2.30;;;15.10;99.90;;;;;;6271783;22;20035;-74
2022/10/24 03:01:48;;;;;;;5.13;1.38;;;15.10;99.90;;;;;;6272185;22;20002;-74
2022/10/24 03:04:13;;;;;;;6.20;2.00;;;15.00;99.90;;;;;;6272498;22;20052;-74
2022/10/24 03:06:40;;;;;;;4.78;1.30;;;15.00;99.90;;;;;;6271710;22;20011;-74
2022/10/24 03:09:06;;;;;;;6.78;1.83;;;15.00;99.90;;;;;;6272327;22;20329;-74
2022/10/24 03:11:31;;;;;;;7.50;2.28;;;15.00;99.90;;;;;;6271440;22;20067;-74
2022/10/24 03:13:57;;;;;;;6.00;1.10;;;15.00;99.90;;;;;;6272073;22;20078;-74
2022/10/24 03:16:23;;;;;;;3.83;1.50;;;15.00;99.90;;;;;;6271819;22;20075;-74
2022/10/24 03:18:49;;;;;;;6.68;1.48;;;15.00;99.90;;;;;;6271815;22;20130;-73
2022/10/24 03:21:14;;;;;;;9.50;1.50;;;15.00;99.90;;;;;;6271717;22;20031;-74
2022/10/24 03:23:40;;;;;;;3.72;1.20;;;15.10;99.90;;;;;;6269656;22;20404;-74
2022/10/24 03:26:06;;;;;;;6.88;2.17;;;15.00;99.90;;;;;;6268784;22;20417;-74
2022/10/24 03:28:31;;;;;;;7.05;1.35;;;14.90;99.90;;;;;;6269041;22;20015;-74
2022/10/24 03:30:57;;;;;;;4.80;1.13;;;15.80;99.90;;;;;;6269785;22;20010;-74
2022/10/24 03:33:22;;;;;;;4.13;1.75;;;14.80;99.90;;;;;;6269353;22;20000;-74
2022/10/24 03:35:52;;;;;;;5.63;1.08;;;14.80;99.90;;;;;;6269036;22;20414;-74
2022/10/24 03:38:18;;;;;;;4.00;1.17;;;14.80;99.90;;;;;;6269735;22;19999;-74
2022/10/24 03:40:44;;;;;;;8.38;2.13;;;14.90;99.90;;;;;;6270866;22;20078;-74
2022/10/24 03:43:09;;;;;;;4.25;1.33;;;14.90;99.90;;;;;;6271948;22;19996;-74
2022/10/24 03:45:36;;;;;;;4.72;1.13;;;15.40;99.90;;;;;;6269723;22;20382;-74
2022/10/24 03:48:02;;;;;;;4.40;1.40;;;15.00;99.90;;;;;;6271851;22;20490;-74
2022/10/24 03:50:28;;;;;;;5.47;1.23;;;14.90;99.90;;;;;;6271856;22;20039;-74
2022/10/24 03:52:54;;;;;;;3.40;0.90;;;14.90;99.90;;;;;;6271302;22;20066;-74
2022/10/24 03:55:19;;;;;;;6.35;1.10;;;15.00;99.90;;;;;;6271395;22;20004;-74
2022/10/24 03:57:45;;;;;;;4.63;1.00;;;14.90;99.90;;;;;;6271181;22;20006;-73
2022/10/24 04:00:11;;;;;;;5.45;1.17;;;14.90;99.90;;;;;;6271873;22;20011;-74
2022/10/24 04:02:36;;;;;;;5.65;0.93;;;15.00;99.90;;;;;;6271346;22;20165;-74
2022/10/24 04:05:02;;;;;;;3.55;0.85;;;15.00;99.90;;;;;;6271322;22;20000;-74
2022/10/24 04:07:28;;;;;;;5.53;1.10;;;15.00;99.90;;;;;;6270988;22;20422;-74
2022/10/24 04:09:54;;;;;;;7.93;1.60;;;15.10;99.90;;;;;;6271088;22;20297;-74
2022/10/24 04:12:20;;;;;;;5.78;1.00;;;15.00;99.90;;;;;;6271109;22;20014;-74
2022/10/24 04:14:45;;;;;;;2.75;0.93;;;14.90;99.90;;;;;;6270826;22;20007;-73
2022/10/24 04:17:11;;;;;;;5.22;0.93;;;14.90;99.90;;;;;;6271542;22;20053;-74
2022/10/24 04:19:36;;;;;;;3.83;1.38;;;15.60;99.90;;;;;;6271079;22;20449;-73
2022/10/24 04:22:02;;;;;;;6.07;0.88;;;14.90;99.90;;;;;;6270801;22;19999;-74
2022/10/24 04:24:28;;;;;;;4.22;1.10;;;15.10;99.90;;;;;;6271573;22;20333;-74
2022/10/24 04:26:54;;;;;;;4.80;1.33;;;16.20;99.90;;;;;;6270654;22;20069;-73
2022/10/24 04:29:19;;;;;;;5.65;1.02;;;14.80;99.90;;;;;;6271449;22;20011;-74
2022/10/24 04:31:45;;;;;;;4.93;1.17;;;14.80;99.90;;;;;;6271254;22;20071;-74
2022/10/24 04:34:10;;;;;;;5.10;1.00;;;14.60;99.90;;;;;;6271349;22;20335;-74
2022/10/24 04:36:36;;;;;;;3.50;0.80;;;14.60;99.90;;;;;;6270748;22;20464;-73
2022/10/24 04:39:02;;;;;;;4.32;1.33;;;16.50;99.90;;;;;;6270302;22;19999;-73
2022/10/24 04:41:27;;;;;;;3.13;1.13;;;14.60;99.90;;;;;;6271561;22;20333;-73
2022/10/24 04:43:53;;;;;;;3.22;0.98;;;14.60;99.90;;;;;;6269961;22;19999;-73
2022/10/24 04:46:18;;;;;;;4.03;1.05;;;14.50;99.90;;;;;;6271353;22;20109;-73
2022/10/24 04:48:44;;;;;;;4.85;0.85;;;14.50;99.90;;;;;;6270936;22;20013;-73
2022/10/24 04:51:10;;;;;;;3.80;1.20;;;14.50;99.90;;;;;;6270981;22;20034;-73
2022/10/24 04:53:35;;;;;;;3.33;1.10;;;14.50;99.90;;;;;;6271560;22;20011;-73
2022/10/24 04:56:01;;;;;;;6.38;1.02;;;15.30;99.90;;;;;;6270993;22;20019;-73
2022/10/24 04:58:26;;;;;;;5.63;1.65;;;14.50;99.90;;;;;;6270692;22;20313;-74
2022/10/24 05:00:52;;;;;;;4.55;1.15;;;14.50;99.90;;;;;;6270481;22;20007;-74
2022/10/24 05:03:18;;;;;;;7.93;0.95;;;14.60;99.90;;;;;;6270844;22;20000;-74
2022/10/24 05:05:45;;;;;;;5.10;1.13;;;14.70;99.90;;;;;;6268462;22;20029;-74
2022/10/24 05:08:10;;;;;;;4.65;0.93;;;14.70;99.90;;;;;;6271309;22;20434;-73
2022/10/24 05:10:36;;;;;;;4.25;1.20;;;14.80;99.90;;;;;;6272144;22;20083;-73
2022/10/24 05:13:02;;;;;;;7.07;1.83;;;14.70;99.90;;;;;;6272943;22;20575;-73
2022/10/24 05:15:28;;;;;;;3.50;0.90;;;14.60;99.90;;;;;;6273102;22;20008;-73
2022/10/24 05:17:55;;;;;;;6.57;1.25;;;14.60;99.90;;;;;;6272469;22;20003;-74
2022/10/24 05:20:20;;;;;;;6.80;1.88;;;14.80;99.90;;;;;;6270209;22;20004;-73
2022/10/24 05:22:46;;;;;;;4.45;1.08;;;14.70;99.90;;;;;;6272470;22;20379;-73
2022/10/24 05:25:11;;;;;;;3.05;1.17;;;14.70;99.90;;;;;;6273286;22;20015;-73
2022/10/24 05:27:37;;;;;;;5.05;1.92;;;14.70;99.90;;;;;;6272654;22;20020;-74
2022/10/24 05:30:03;;;;;;;5.60;1.55;;;14.80;99.90;;;;;;6272438;22;20000;-73
2022/10/24 05:32:28;;;;;;;6.43;1.10;;;14.80;99.90;;;;;;6272848;22;20413;-74
2022/10/24 05:34:54;;;;;;;7.90;1.50;;;14.90;99.90;;;;;;6271686;22;20019;-74
2022/10/24 05:37:20;;;;;;;4.32;1.08;;;14.90;99.90;;;;;;6272685;22;20014;-73
2022/10/24 05:39:45;;;;;;;8.43;1.17;;;15.00;99.90;;;;;;6272502;22;20053;-73
2022/10/24 05:42:11;;;;;;;2.65;0.85;;;14.90;99.90;;;;;;6273432;22;19999;-74
2022/10/24 05:44:36;;;;;;;7.95;1.48;;;15.00;99.90;;;;;;6272634;22;20000;-74
2022/10/24 05:47:02;;;;;;;4.82;1.20;;;14.80;99.90;;;;;;6272469;22;20043;-74
2022/10/24 05:49:28;;;;;;;6.63;1.10;;;14.90;99.90;;;;;;6271905;22;20008;-73
2022/10/24 05:51:53;;;;;;;3.85;0.70;;;15.70;99.90;;;;;;6272381;22;20008;-73
2022/10/24 05:54:19;;;;;;;4.97;1.30;;;14.80;99.90;;;;;;6272734;22;20322;-73
2022/10/24 05:56:44;;;;;;;6.10;1.50;;;14.80;99.90;;;;;;6272231;22;20065;-74
2022/10/24 05:59:10;;;;;;;4.90;0.90;;;14.90;99.90;;;;;;6272287;22;20080;-73
2022/10/24 06:01:36;;;;;;;6.82;0.98;;;14.70;99.90;;;;;;6272587;22;20137;-73
2022/10/24 06:04:01;;;;;;;6.43;1.30;;;15.10;99.90;;;;;;6271487;22;20000;-73
2022/10/24 06:06:27;;;;;;;5.40;1.35;;;15.00;99.90;;;;;;6272478;22;20004;-73
2022/10/24 06:08:53;;;;;;;6.13;1.02;;;15.00;99.90;;;;;;6271893;22;20016;-74
2022/10/24 06:11:19;;;;;;;4.65;1.00;;;14.90;99.90;;;;;;6272382;22;20004;-74
2022/10/24 06:13:44;;;;;;;2.75;0.88;;;14.80;99.90;;;;;;6272092;22;20038;-73
2022/10/24 06:16:10;;;;;;;3.65;1.35;;;16.20;99.90;;;;;;6272671;22;20436;-75
2022/10/24 06:18:37;;;;;;;4.70;1.15;;;14.80;99.90;;;;;;6271889;22;20026;-74
2022/10/24 06:21:05;;;;;;;5.22;0.85;;;14.80;99.90;;;;;;6270425;22;20072;-74
2022/10/24 06:23:31;;;;;;;7.00;1.45;;;14.70;99.90;;;;;;6272422;22;19999;-74
2022/10/24 06:25:57;;;;;;;4.43;1.10;;;14.80;99.90;;;;;;6272111;22;20007;-73
2022/10/24 06:28:22;;;;;;;6.15;1.05;;;14.80;99.90;;;;;;6269769;22;20020;-71
2022/10/24 06:30:49;;;;;;;5.60;1.17;;;14.70;99.90;;;;;;6271075;22;20023;-71
2022/10/24 06:33:15;;;;;;;6.53;1.00;;;14.80;99.90;;;;;;6271267;22;20694;-71
2022/10/24 06:35:40;;;;;;;5.97;0.98;;;14.80;99.90;;;;;;6271766;22;20046;-71
2022/10/24 06:38:06;;;;;;;7.93;1.27;;;14.90;99.90;;;;;;6271529;22;20077;-71
2022/10/24 06:40:31;;;;;;;4.85;1.00;;;14.80;99.90;;;;;;6271532;22;19991;-71
2022/10/24 06:42:57;;;;;;;9.90;1.55;;;14.90;99.90;;;;;;6269761;22;20000;-71
2022/10/24 06:45:23;;;;;;;5.97;1.70;;;14.90;99.90;;;;;;6271660;22;20004;-71
2022/10/24 06:47:49;;;;;;;5.30;1.15;;;14.90;99.90;;;;;;6270748;22;20313;-71
2022/10/24 06:50:15;;;;;;;4.07;0.77;;;14.80;99.90;;;;;;6271669;22;19999;-71
2022/10/24 06:52:41;;;;;;;6.15;1.42;;;14.80;99.90;;;;;;6271357;22;20019;-71
2022/10/24 06:55:07;;;;;;;4.50;0.85;;;14.80;99.90;;;;;;6271379;22;20374;-71
2022/10/24 06:57:32;;;;;;;7.68;1.20;;;14.80;99.90;;;;;;6271438;22;19992;-70
2022/10/24 06:59:58;;;;;;;4.30;1.13;;;14.80;99.90;;;;;;6270629;22;20054;-71
2022/10/24 07:02:24;;;;;;;5.78;1.00;;;15.00;99.90;;;;;;6270868;22;20074;-71
2022/10/24 07:04:49;;;;;;;8.60;1.05;;;14.90;99.90;;;;;;6269504;22;20125;-71
2022/10/24 07:07:17;;;;;;;6.85;1.10;;;14.90;99.90;;;;;;6271175;22;20000;-71
2022/10/24 07:09:43;;;;;;;10.52;1.50;;;15.00;99.90;;;;;;6271438;22;20079;-71
2022/10/24 07:12:10;;;;;;;7.82;1.80;;;15.10;99.90;;;;;;6271791;22;20049;-71
2022/10/24 07:14:35;;;;;;;6.05;1.25;;;15.10;99.90;;;;;;6272114;22;20023;-71
2022/10/24 07:17:01;;;;;;;5.70;1.38;;;15.80;99.90;;;;;;6269242;22;20410;-71
2022/10/24 07:19:26;;;;;;;7.28;1.25;;;15.20;99.90;;;;;;6271841;22;20030;-71
2022/10/24 07:21:52;;;;;;;4.50;1.20;;;15.30;99.90;;;;;;6271062;22;19996;-71
2022/10/24 07:24:20;;;;;;;3.10;0.70;;;15.30;99.90;;;;;;6272077;22;20015;-71
2022/10/24 07:26:45;;;;;;;8.40;1.63;;;15.30;99.90;;;;;;6271595;22;20341;-70
2022/10/24 07:29:11;;;;;;;11.05;2.10;;;15.40;99.90;;;;;;6271853;22;20004;-71
2022/10/24 07:31:36;;;;;;;7.00;1.50;;;15.40;99.90;;;;;;6269524;22;20414;-71
2022/10/24 07:34:04;;;;;;;3.80;1.33;;;15.40;99.90;;;;;;6269858;22;20046;-70
2022/10/24 07:36:30;;;;;;;6.53;1.65;;;15.40;99.90;;;;;;6271830;22;19999;-71
2022/10/24 07:38:57;;;;;;;6.03;1.30;;;15.30;99.90;;;;;;6271551;22;20066;-71
2022/10/24 07:41:24;;;;;;;8.30;1.17;;;15.30;99.90;;;;;;6271816;22;20456;-71
2022/10/24 07:43:51;;;;;;;10.13;1.38;;;15.40;99.90;;;;;;6271795;22;20000;-70
2022/10/24 07:46:18;;;;;;;9.07;1.15;;;15.40;99.90;;;;;;6271304;22;20075;-71
2022/10/24 07:48:44;;;;;;;7.00;0.90;;;15.40;99.90;;;;;;6271842;22;20483;-71
2022/10/24 07:51:12;;;;;;;5.18;1.33;;;15.20;99.90;;;;;;6271500;22;20000;-71
2022/10/24 07:53:37;;;;;;;4.45;1.02;;;15.50;99.90;;;;;;6270999;22;20079;-71
2022/10/24 07:56:09;;;;;;;6.97;1.15;;;15.90;99.90;;;;;;6270433;22;20353;-71
2022/10/24 07:58:35;;;;;;;3.40;0.80;;;15.60;99.90;;;;;;6271007;22;20011;-71
2022/10/24 08:01:03;;;;;;;9.68;2.25;;;15.60;99.90;;;;;;6270354;22;20000;-71
2022/10/24 08:03:29;;;;;;;7.75;1.30;;;15.70;99.90;;;;;;6271624;22;20006;-70
2022/10/24 08:05:55;;;;;;;7.72;1.08;;;15.60;99.90;;;;;;6269471;22;20477;-70
2022/10/24 08:08:21;;;;;;;7.28;1.48;;;16.80;99.90;;;;;;6271836;22;20031;-71
2022/10/24 08:10:47;;;;;;;8.88;0.88;;;15.70;99.90;;;;;;6271090;22;19999;-70
2022/10/24 08:13:12;;;;;;;6.78;1.00;;;15.70;99.90;;;;;;6271461;22;20008;-71
2022/10/24 08:15:38;;;;;;;7.47;1.20;;;15.20;99.90;;;;;;6270691;22;20056;-71
2022/10/24 08:18:03;;;;;;;9.25;1.38;;;15.70;99.90;;;;;;6271481;22;20126;-70
2022/10/24 08:20:29;;;;;;;7.55;2.35;;;15.70;99.90;;;;;;6271610;22;20046;-71
2022/10/24 08:22:55;;;;;;;8.75;1.27;;;15.70;99.90;;;;;;6271300;22;20003;-70
2022/10/24 08:25:21;;;;;;;7.70;0.98;;;16.80;99.90;;;;;;6271568;22;20480;-71
2022/10/24 08:27:46;;;;;;;7.38;2.17;;;15.80;99.90;;;;;;6271206;22;20020;-70
2022/10/24 08:30:12;;;;;;;8.15;1.38;;;15.90;99.90;;;;;;6270739;22;20251;-70
2022/10/24 08:32:38;;;;;;;6.93;0.88;;;15.90;99.90;;;;;;6271506;22;19996;-70
2022/10/24 08:35:05;;;;;;;9.20;1.27;;;16.00;99.90;;;;;;6271145;22;20095;-70
2022/10/24 08:37:31;;;;;;;12.75;1.65;;;16.00;99.90;;;;;;6271598;22;20174;-71
2022/10/24 08:39:56;;;;;;;6.07;0.95;;;16.10;99.90;;;;;;6269306;22;20468;-70
2022/10/24 08:42:24;;;;;;;7.15;1.45;;;16.00;99.90;;;;;;6271540;22;20103;-71
2022/10/24 08:44:51;;;;;;;7.47;1.38;;;16.10;99.90;;;;;;6270049;22;20031;-70
2022/10/24 08:47:28;;;;;;;8.00;1.00;;;16.20;99.90;;;;;;6271448;22;20094;-70
2022/10/24 08:50:03;;;;;;;8.93;0.55;;;16.20;99.90;;;;;;6270858;22;20444;-71
2022/10/24 08:52:47;;;;;;;5.10;0.80;;;16.20;99.90;;;;;;6271498;22;20437;-71
2022/10/24 08:55:18;;;;;;;5.97;1.10;;;16.20;99.90;;;;;;6271051;22;20006;-70
2022/10/24 08:57:49;;;;;;;9.45;1.27;;;16.30;99.90;;;;;;6270612;22;20004;-70
2022/10/24 09:00:24;;;;;;;5.75;1.17;;;17.60;99.90;;;;;;6270970;22;20051;-71
2022/10/24 09:03:00;;;;;;;6.28;0.90;;;16.50;99.90;;;;;;6271317;22;19996;-72
2022/10/24 09:05:35;;;;;;;10.77;1.38;;;16.60;99.90;;;;;;6269635;22;20504;-71
2022/10/24 09:08:14;;;;;;;4.35;0.93;;;16.70;99.90;;;;;;6270977;22;20071;-70
2022/10/24 09:10:50;;;;;;;5.22;0.75;;;18.10;99.90;;;;;;6271154;22;20007;-71
2022/10/24 09:13:16;;;;;;;5.80;1.80;;;16.70;99.90;;;;;;6270945;22;20007;-71
2022/10/24 09:15:45;;;;;;;4.22;0.80;;;17.60;99.90;;;;;;6271078;22;19999;-71
2022/10/24 09:18:26;;;;;;;4.20;0.75;;;16.80;99.90;;;;;;6271138;22;20014;-71
2022/10/24 09:20:52;;;;;;;7.93;1.85;;;16.80;99.90;;;;;;6270877;22;20000;-71
2022/10/24 09:23:22;;;;;;;4.68;0.68;;;16.80;99.90;;;;;;6271567;22;19996;-71
2022/10/24 09:25:50;;;;;;;6.88;0.93;;;16.80;99.90;;;;;;6270996;22;20012;-71
2022/10/24 09:28:16;;;;;;;6.30;0.80;;;16.80;99.90;;;;;;6270480;22;20022;-71
2022/10/24 09:30:42;;;;;;;4.97;0.70;;;16.80;99.90;;;;;;6271003;22;20390;-71
2022/10/24 09:33:30;;;;;;;11.20;1.05;;;16.90;99.90;;;;;;6271186;22;20008;-71
2022/10/24 09:35:59;;;;;;;3.63;0.90;;;16.90;99.90;;;;;;6270908;22;20000;-71
2022/10/24 09:38:30;;;;;;;4.03;0.60;;;16.90;99.90;;;;;;6271317;22;20039;-71
2022/10/24 09:41:01;;;;;;;5.13;1.10;;;17.50;99.90;;;;;;6270400;22;20000;-71
2022/10/24 09:43:45;;;;;;;5.25;0.70;;;17.00;99.90;;;;;;6271206;22;20003;-71
2022/10/24 09:46:20;;;;;;;5.57;1.35;;;17.80;99.90;;;;;;6269242;22;20076;-71
2022/10/24 09:48:54;;;;;;;6.65;0.85;;;17.10;99.90;;;;;;6271134;22;20007;-71
2022/10/24 09:51:30;;;;;;;7.75;1.58;;;17.20;99.90;;;;;;6271113;22;20004;-71
2022/10/24 09:54:19;;;;;;;3.90;0.88;;;17.20;99.90;;;;;;6270868;22;20092;-71
2022/10/24 09:56:47;;;;;;;7.55;1.05;;;17.30;99.90;;;;;;6271311;22;20418;-71
2022/10/24 09:59:16;;;;;;;5.07;0.80;;;17.40;99.90;;;;;;6272327;22;19999;-71
2022/10/24 10:01:41;;;;;;;5.45;1.60;;;18.20;99.90;;;;;;6272829;22;20030;-71
2022/10/24 10:04:16;;;;;;;7.43;1.08;;;17.40;99.90;;;;;;6272357;22;19996;-71
2022/10/24 10:06:47;;;;;;;3.17;0.80;;;17.60;99.90;;;;;;6272514;22;20364;-71
2022/10/24 10:09:24;;;;;;;7.40;0.70;;;17.50;99.90;;;;;;6272573;22;20042;-71
2022/10/24 10:11:58;;;;;;;5.72;0.93;;;18.40;99.90;;;;;;6272288;22;20023;-71
2022/10/24 10:14:27;;;;;;;8.32;0.90;;;17.50;99.90;;;;;;6272818;22;20095;-71
2022/10/24 10:16:59;;;;;;;4.60;0.50;;;17.60;99.90;;;;;;6270654;22;20413;-71
2022/10/24 10:19:25;;;;;;;2.92;0.60;;;17.40;99.90;;;;;;6272635;22;20007;-71
2022/10/24 10:22:04;;;;;;;3.85;0.70;;;17.70;99.90;;;;;;6270701;22;20329;-71
2022/10/24 10:24:42;;;;;;;1.55;0.55;;;17.70;99.90;;;;;;6271187;22;20122;-71
2022/10/24 10:27:30;;;;;;;5.60;0.85;;;17.70;99.90;;;;;;6272457;22;20035;-71
2022/10/24 10:30:12;;;;;;;10.25;1.08;;;17.90;99.90;;;;;;6270769;22;20027;-71
2022/10/24 10:33:02;;;;;;;4.60;0.57;;;17.90;99.90;;;;;;6272591;22;20004;-71
2022/10/24 10:35:46;;;;;;;5.93;0.90;;;18.00;99.90;;;;;;6272749;22;20000;-71
2022/10/24 10:38:30;;;;;;;;;;;18.20;99.90;;;;;;6271388;22;20017;-71
2022/10/24 10:41:33;;;;;;;6.25;0.98;;;17.90;99.90;;;;;;6271804;22;20041;-71
2022/10/24 10:44:17;;;;;;;4.40;0.88;;;17.90;99.90;;;;;;6267712;22;20008;-71
2022/10/24 10:47:00;;;;;;;6.72;0.60;;;17.80;99.90;;;;;;6272453;22;19999;-71
2022/10/24 10:49:38;;;;;;;4.82;1.42;;;17.90;99.90;;;;;;6272602;22;19996;-71
2022/10/24 10:52:23;;;;;;;4.22;1.02;;;17.90;99.90;;;;;;6272560;22;20003;-71
2022/10/24 10:55:17;;;;;;;4.35;0.95;;;17.90;99.90;;;;;;6271879;22;20004;-71
2022/10/24 10:58:01;;;;;;;4.03;0.57;;;18.00;99.90;;;;;;6272406;22;20396;-71
2022/10/24 11:00:34;;;;;;;;;;;18.10;99.90;;;;;;6271173;22;20518;-71
2022/10/24 11:03:30;;;;;;;3.53;0.50;;;18.00;99.90;;;;;;6272472;22;19921;-71
2022/10/24 11:06:14;;;;;;;2.33;0.85;;;18.00;99.90;;;;;;6272035;22;20101;-71
2022/10/24 11:08:44;;;;;;;;;;;19.40;99.90;;;;;;6272053;22;20007;-71
2022/10/24 11:11:26;;;;;;;3.13;0.73;;;18.10;99.90;;;;;;6272357;22;20317;-71
2022/10/24 11:14:19;;;;;;;4.32;0.80;;;17.90;99.90;;;;;;6271537;22;20011;-71
2022/10/24 11:16:46;;;;;;;2.40;0.60;;;17.60;99.90;;;;;;6271884;22;20362;-71
2022/10/24 11:19:34;;;;;;;5.85;0.73;;;17.80;99.90;;;;;;6271384;22;20003;-71
2022/10/24 11:22:03;;;;;;;5.93;0.90;;;17.80;99.90;;;;;;6271503;22;20000;-71
2022/10/24 11:24:43;;;;;;;4.88;0.60;;;17.80;99.90;;;;;;6271673;22;20003;-71
2022/10/24 11:27:14;;;;;;;3.03;0.65;;;17.80;99.90;;;;;;6271852;22;20125;-71
2022/10/24 11:30:02;;;;;;;5.10;1.05;;;17.80;99.90;;;;;;6271955;22;20438;-71
2022/10/24 11:32:44;;;;;;;4.30;0.52;;;17.90;99.90;;;;;;6272098;22;20326;-71
2022/10/24 11:35:23;;;;;;;3.70;0.50;;;18.00;99.90;;;;;;6271934;22;20070;-71
2022/10/24 11:37:53;;;;;;;7.70;0.75;;;18.10;99.90;;;;;;6271504;22;20551;-71
2022/10/24 11:40:21;;;;;;;3.75;0.88;;;17.20;99.90;;;;;;6272231;22;20124;-71
2022/10/24 11:42:54;;;;;;;5.25;1.17;;;18.20;99.90;;;;;;6272065;22;20007;-71
2022/10/24 11:45:25;;;;;;;5.93;0.68;;;18.20;99.90;;;;;;6270058;22;20008;-71
2022/10/24 11:47:55;;;;;;;7.32;1.00;;;18.50;99.90;;;;;;6271712;22;20161;-71
2022/10/24 11:50:38;;;;;;;3.65;0.65;;;18.20;99.90;;;;;;6271934;22;20007;-71
2022/10/24 11:53:19;;;;;;;2.10;0.50;;;18.20;99.90;;;;;;6271322;22;20010;-71
2022/10/24 11:55:58;;;;;;;3.30;0.70;;;18.20;99.90;;;;;;6271612;22;20007;-71
2022/10/24 11:58:27;;;;;;;3.20;0.82;;;18.10;99.90;;;;;;6271793;22;20429;-71
2022/10/24 12:01:27;;;;;;;4.85;0.70;;;18.00;99.90;;;;;;6270997;22;20003;-72
2022/10/24 12:03:59;;;;;;;5.55;0.90;;;17.90;99.90;;;;;;6271607;22;20271;-72
2022/10/24 12:06:55;;;;;;;4.45;0.90;;;17.80;99.90;;;;;;6271055;22;20070;-72
2022/10/24 12:09:54;;;;;;;4.50;0.80;;;17.80;99.90;;;;;;6271894;22;20081;-71
2022/10/24 12:13:06;;;;;;;4.70;0.63;;;17.70;99.90;;;;;;6271736;22;20000;-71
2022/10/24 12:15:50;;;;;;;2.75;0.50;;;17.80;99.90;;;;;;6271568;22;19996;-71
2022/10/24 12:18:38;;;;;;;3.22;0.60;;;17.90;99.90;;;;;;6269882;22;20011;-71
2022/10/24 12:21:10;;;;;;;3.80;0.82;;;17.80;99.90;;;;;;6270421;22;20368;-71
2022/10/24 12:23:38;;;;;;;2.55;0.73;;;18.00;99.90;;;;;;6271599;22;20004;-72
2022/10/24 12:26:31;;;;;;;3.50;0.77;;;18.10;99.90;;;;;;6271583;22;20008;-72
2022/10/24 12:29:02;;;;;;;4.05;0.60;;;18.10;99.90;;;;;;6271217;22;20376;-72
2022/10/24 12:31:33;;;;;;;5.50;1.17;;;18.20;99.90;;;;;;6271899;22;19995;-72
2022/10/24 12:34:17;;;;;;;5.47;0.90;;;18.30;99.90;;;;;;6271305;22;20010;-71
2022/10/24 12:37:04;;;;;;;7.00;0.80;;;18.30;99.90;;;;;;6270896;22;19992;-71
2022/10/24 12:39:35;;;;;;;7.20;0.80;;;18.20;99.90;;;;;;6270018;22;20004;-72
2022/10/24 12:42:01;;;;;;;4.20;0.63;;;18.20;99.90;;;;;;6271104;22;20004;-72
2022/10/24 12:44:33;;;;;;;4.88;0.68;;;18.10;99.90;;;;;;6271511;22;20432;-71
2022/10/24 12:47:00;;;;;;;3.17;0.88;;;19.30;99.90;;;;;;6270916;22;19996;-71
2022/10/24 12:49:31;;;;;;;5.15;0.80;;;18.30;99.90;;;;;;6271156;22;20098;-72
2022/10/24 12:51:57;;;;;;;6.57;0.85;;;18.30;99.90;;;;;;6270917;22;20014;-72
2022/10/24 12:54:44;;;;;;;5.38;1.00;;;18.20;99.90;;;;;;6270886;22;20416;-71
2022/10/24 12:57:12;;;;;;;8.40;1.23;;;18.10;99.90;;;;;;6270841;22;20030;-71
2022/10/24 12:59:47;;;;;;;5.07;0.90;;;18.00;99.90;;;;;;6271158;22;20054;-72
2022/10/24 13:02:18;;;;;;;4.70;1.08;;;18.00;99.90;;;;;;6271437;22;20003;-71
2022/10/24 13:05:13;;;;;;;3.58;1.13;;;17.90;99.90;;;;;;6270642;22;20041;-72
2022/10/24 13:07:57;;;;;;;;;;;17.90;99.90;;;;;;6271961;22;20491;-72